Time;durP1;ratioP1;P1;durP2;ratioP2;P2;SDS_P1;SDS_P2;PMS_P1;PMS_P2;Temp;Humidity;BMP_temperature;BMP_pressure;BME280_temperature;BME280_humidity;BME280_pressure;Samples;Min_cycle;Max_cycle;Signal;HPM_P1;HPM_P2
2023/10/23 00:01:34;;;;;;;3.63;1.43;;;10.80;96.70;;;;;;5031586;28;20478;-59
2023/10/23 00:04:01;;;;;;;3.93;1.30;;;10.70;99.90;;;;;;5032243;28;20477;-59
2023/10/23 00:06:29;;;;;;;2.17;1.13;;;10.70;99.90;;;;;;5029179;28;20439;-59
2023/10/23 00:08:55;;;;;;;1.00;0.83;;;10.70;99.90;;;;;;5032147;28;20490;-59
2023/10/23 00:11:23;;;;;;;2.73;0.90;;;10.60;99.90;;;;;;5031094;28;20478;-59
2023/10/23 00:13:49;;;;;;;1.30;1.20;;;10.60;99.90;;;;;;5030029;28;20459;-59
2023/10/23 00:16:16;;;;;;;7.63;1.40;;;10.60;99.90;;;;;;5031434;28;20509;-59
2023/10/23 00:18:42;;;;;;;2.40;1.10;;;10.60;99.90;;;;;;5026483;28;20489;-59
2023/10/23 00:21:09;;;;;;;2.60;1.27;;;10.60;99.90;;;;;;5022993;28;20490;-59
2023/10/23 00:23:37;;;;;;;1.03;1.03;;;10.50;99.90;;;;;;5023217;28;21027;-58
2023/10/23 00:26:05;;;;;;;3.20;1.03;;;10.50;99.90;;;;;;5031230;28;20838;-59
2023/10/23 00:28:32;;;;;;;2.10;1.37;;;10.40;99.90;;;;;;5030996;28;20510;-58
2023/10/23 00:30:59;;;;;;;2.13;1.30;;;10.40;99.90;;;;;;5031884;28;20822;-58
2023/10/23 00:33:25;;;;;;;3.63;2.10;;;10.30;99.90;;;;;;5031873;28;20806;-59
2023/10/23 00:35:52;;;;;;;1.50;1.40;;;10.30;99.90;;;;;;5031800;28;20505;-59
2023/10/23 00:38:19;;;;;;;1.97;1.87;;;10.30;99.90;;;;;;5030331;28;20487;-59
2023/10/23 00:40:47;;;;;;;3.53;1.87;;;10.30;99.90;;;;;;5031091;28;21057;-59
2023/10/23 00:43:17;;;;;;;1.83;1.40;;;10.30;99.90;;;;;;5030683;28;20487;-59
2023/10/23 00:45:49;;;;;;;3.20;1.10;;;10.30;99.90;;;;;;5030536;28;20498;-59
2023/10/23 00:48:19;;;;;;;1.83;1.20;;;10.20;99.90;;;;;;5031105;28;20454;-59
2023/10/23 00:50:46;;;;;;;1.33;1.10;;;10.20;99.90;;;;;;5031408;28;20496;-59
2023/10/23 00:53:12;;;;;;;1.60;1.50;;;10.10;99.90;;;;;;5031366;28;20948;-59
2023/10/23 00:55:40;;;;;;;2.20;1.30;;;10.10;99.90;;;;;;5026144;28;20447;-59
2023/10/23 00:58:08;;;;;;;4.63;1.03;;;10.00;99.90;;;;;;5030782;28;20575;-58
2023/10/23 01:00:35;;;;;;;2.07;1.10;;;9.90;99.90;;;;;;5023057;28;20969;-59
2023/10/23 01:03:02;;;;;;;4.00;1.63;;;9.90;99.90;;;;;;5030546;28;20846;-59
2023/10/23 01:05:30;;;;;;;1.10;1.00;;;9.80;99.90;;;;;;5030111;28;20521;-59
2023/10/23 01:07:57;;;;;;;2.33;1.10;;;9.80;99.90;;;;;;5031081;28;20521;-59
2023/10/23 01:10:23;;;;;;;2.63;1.30;;;9.70;99.90;;;;;;5030810;28;20455;-59
2023/10/23 01:12:53;;;;;;;1.33;1.20;;;9.70;99.90;;;;;;5025373;28;20521;-59
2023/10/23 01:15:21;;;;;;;1.97;1.57;;;9.60;99.90;;;;;;5029567;28;20509;-59
2023/10/23 01:17:48;;;;;;;2.77;1.37;;;9.50;99.90;;;;;;5029907;28;20480;-59
2023/10/23 01:20:15;;;;;;;1.37;1.27;;;9.40;99.90;;;;;;5024226;28;20544;-59
2023/10/23 01:22:42;;;;;;;4.10;1.00;;;9.40;99.90;;;;;;5028062;28;20455;-59
2023/10/23 01:25:13;;;;;;;3.73;0.93;;;9.40;99.90;;;;;;5029324;28;20454;-60
2023/10/23 01:27:39;;;;;;;1.47;1.10;;;9.30;99.90;;;;;;5030564;28;20475;-58
2023/10/23 01:30:08;;;;;;;1.90;1.43;;;9.30;99.90;;;;;;5025205;28;20921;-59
2023/10/23 01:32:34;;;;;;;1.30;1.20;;;9.20;99.90;;;;;;5030002;28;20983;-59
2023/10/23 01:35:01;;;;;;;3.70;1.40;;;9.20;99.90;;;;;;5030736;28;20489;-59
2023/10/23 01:37:27;;;;;;;4.20;1.17;;;9.20;99.90;;;;;;5025122;28;20532;-59
2023/10/23 01:39:54;;;;;;;4.73;1.37;;;9.20;99.90;;;;;;5022424;28;20493;-58
2023/10/23 01:42:22;;;;;;;4.93;1.70;;;9.10;99.90;;;;;;5028821;28;20490;-59
2023/10/23 01:44:49;;;;;;;1.93;0.90;;;9.10;99.90;;;;;;5027281;28;20471;-58
2023/10/23 01:47:15;;;;;;;3.77;1.07;;;9.10;99.90;;;;;;5021273;28;20536;-59
2023/10/23 01:49:42;;;;;;;1.70;1.33;;;9.10;99.90;;;;;;5026046;28;21843;-59
2023/10/23 01:52:08;;;;;;;2.50;1.07;;;9.10;99.90;;;;;;5029685;28;20462;-59
2023/10/23 01:54:35;;;;;;;1.83;1.10;;;9.10;99.90;;;;;;5030706;28;20573;-58
2023/10/23 01:57:02;;;;;;;1.00;1.00;;;9.00;99.90;;;;;;5034370;28;20462;-59
2023/10/23 01:59:30;;;;;;;1.10;0.90;;;9.00;99.90;;;;;;5033844;28;20470;-58
2023/10/23 02:01:57;;;;;;;4.03;1.53;;;9.00;99.90;;;;;;5034632;28;20486;-59
2023/10/23 02:04:23;;;;;;;2.40;1.40;;;9.00;99.90;;;;;;5034405;28;20454;-59
2023/10/23 02:06:50;;;;;;;1.20;1.10;;;9.00;99.90;;;;;;5033643;28;20463;-58
2023/10/23 02:09:17;;;;;;;2.10;1.37;;;9.00;99.90;;;;;;5033313;28;20478;-59
2023/10/23 02:11:44;;;;;;;2.33;1.30;;;9.00;99.90;;;;;;5026991;28;20493;-59
2023/10/23 02:14:11;;;;;;;7.20;1.37;;;9.00;99.90;;;;;;5027445;28;20463;-59
2023/10/23 02:16:39;;;;;;;2.93;1.07;;;9.10;99.90;;;;;;5033801;28;20975;-59
2023/10/23 02:19:06;;;;;;;2.30;0.97;;;9.00;99.90;;;;;;5034670;28;20470;-59
2023/10/23 02:21:33;;;;;;;1.27;1.10;;;9.00;99.90;;;;;;5033513;28;20921;-59
2023/10/23 02:23:59;;;;;;;1.17;0.90;;;9.00;99.90;;;;;;5027960;28;20521;-59
2023/10/23 02:26:27;;;;;;;1.67;0.97;;;9.00;99.90;;;;;;5034343;28;20497;-60
2023/10/23 02:28:54;;;;;;;3.80;1.93;;;9.00;99.90;;;;;;5033885;28;20466;-58
2023/10/23 02:31:21;;;;;;;1.10;1.00;;;9.00;99.90;;;;;;5033691;28;20459;-58
2023/10/23 02:33:49;;;;;;;1.20;1.10;;;9.00;99.90;;;;;;5034095;28;20536;-59
2023/10/23 02:36:15;;;;;;;1.87;1.50;;;9.00;99.90;;;;;;5034352;28;20447;-59
2023/10/23 02:38:42;;;;;;;1.50;1.40;;;9.00;99.90;;;;;;5031367;28;20541;-59
2023/10/23 02:41:09;;;;;;;4.63;1.40;;;9.00;99.90;;;;;;5024472;28;21057;-59
2023/10/23 02:43:35;;;;;;;3.83;1.30;;;9.00;99.90;;;;;;5032769;28;20463;-59
2023/10/23 02:46:02;;;;;;;4.53;1.80;;;9.10;99.90;;;;;;5033616;28;20439;-59
2023/10/23 02:48:29;;;;;;;2.03;1.77;;;9.10;99.90;;;;;;5033896;28;20467;-59
2023/10/23 02:50:57;;;;;;;2.90;1.40;;;9.00;99.90;;;;;;5033598;28;20431;-58
2023/10/23 02:53:24;;;;;;;4.23;1.60;;;9.00;99.90;;;;;;5029526;28;20524;-58
2023/10/23 02:55:51;;;;;;;1.73;1.63;;;9.00;99.90;;;;;;5031246;28;20463;-58
2023/10/23 02:58:19;;;;;;;2.50;1.30;;;8.80;99.90;;;;;;5030849;28;20482;-61
2023/10/23 03:00:45;;;;;;;3.70;1.67;;;8.80;99.90;;;;;;5032077;28;20898;-60
2023/10/23 03:03:13;;;;;;;1.87;1.40;;;8.80;99.90;;;;;;5027194;28;20498;-60
2023/10/23 03:05:39;;;;;;;2.40;1.37;;;8.80;99.90;;;;;;5032607;28;20450;-60
2023/10/23 03:08:07;;;;;;;3.30;1.60;;;8.70;99.90;;;;;;5031912;28;20475;-60
2023/10/23 03:10:34;;;;;;;1.57;1.27;;;8.70;99.90;;;;;;5032079;28;20494;-60
2023/10/23 03:13:01;;;;;;;1.90;1.40;;;8.70;99.90;;;;;;5033381;28;20500;-59
2023/10/23 03:15:29;;;;;;;1.40;1.30;;;8.60;99.90;;;;;;5032169;28;20837;-59
2023/10/23 03:17:56;;;;;;;1.43;1.23;;;8.60;99.90;;;;;;5030977;28;21008;-58
2023/10/23 03:20:22;;;;;;;1.50;1.40;;;8.50;99.90;;;;;;5032849;28;20435;-59
2023/10/23 03:22:49;;;;;;;1.57;1.47;;;8.50;99.90;;;;;;5032913;28;20477;-59
2023/10/23 03:25:17;;;;;;;2.00;1.60;;;8.50;99.90;;;;;;5023597;28;20463;-59
2023/10/23 03:27:43;;;;;;;5.10;1.87;;;8.40;99.90;;;;;;5026877;28;20567;-58
2023/10/23 03:30:11;;;;;;;3.60;1.40;;;8.40;99.90;;;;;;5030936;28;20577;-59
2023/10/23 03:32:37;;;;;;;2.13;1.53;;;8.40;99.90;;;;;;5032678;28;20439;-59
2023/10/23 03:35:05;;;;;;;4.30;1.87;;;8.30;99.90;;;;;;5032320;28;20443;-59
2023/10/23 03:37:31;;;;;;;2.30;1.80;;;8.30;99.90;;;;;;5032529;28;20520;-58
2023/10/23 03:39:58;;;;;;;13.73;1.83;;;8.20;99.90;;;;;;5031902;28;20455;-60
2023/10/23 03:42:26;;;;;;;1.70;1.50;;;8.20;99.90;;;;;;5030399;28;20533;-59
2023/10/23 03:44:52;;;;;;;2.50;1.40;;;8.10;99.90;;;;;;5024493;28;20501;-59
2023/10/23 03:47:19;;;;;;;1.77;1.60;;;8.10;99.90;;;;;;5032531;28;20451;-59
2023/10/23 03:49:47;;;;;;;2.47;1.50;;;8.10;99.90;;;;;;5032255;28;20451;-58
2023/10/23 03:52:14;;;;;;;2.00;1.53;;;8.00;99.90;;;;;;5032455;28;20442;-59
2023/10/23 03:54:40;;;;;;;1.90;1.63;;;8.00;99.90;;;;;;5030782;28;20463;-59
2023/10/23 03:57:07;;;;;;;2.87;1.67;;;8.00;99.90;;;;;;5031810;28;20462;-60
2023/10/23 03:59:35;;;;;;;9.07;1.63;;;7.90;99.90;;;;;;5059619;22;20493;-61
2023/10/23 04:02:01;;;;;;;5.07;2.67;;;7.90;99.90;;;;;;5051805;28;20509;-61
2023/10/23 04:04:28;;;;;;;1.60;1.50;;;7.90;99.90;;;;;;5047944;28;20488;-60
2023/10/23 04:06:55;;;;;;;4.47;1.90;;;7.80;99.90;;;;;;5051875;28;20863;-61
2023/10/23 04:09:21;;;;;;;2.30;1.60;;;7.90;99.90;;;;;;5052208;28;20457;-60
2023/10/23 04:11:48;;;;;;;1.67;1.57;;;7.80;99.90;;;;;;5047277;28;20458;-61
2023/10/23 04:14:14;;;;;;;1.67;1.57;;;7.80;99.90;;;;;;5045344;28;20457;-62
2023/10/23 04:16:42;;;;;;;1.50;1.40;;;7.80;99.90;;;;;;5050027;28;20939;-60
2023/10/23 04:19:09;;;;;;;3.90;2.00;;;7.80;99.90;;;;;;5042339;28;20481;-60
2023/10/23 04:21:39;;;;;;;9.30;1.40;;;7.70;99.90;;;;;;5046335;28;20526;-61
2023/10/23 04:24:06;;;;;;;2.80;2.17;;;7.70;99.90;;;;;;5047840;28;20462;-60
2023/10/23 04:26:33;;;;;;;2.70;1.70;;;7.70;99.90;;;;;;5043998;28;21013;-60
2023/10/23 04:28:59;;;;;;;5.13;1.80;;;7.60;99.90;;;;;;5050034;28;20543;-62
2023/10/23 04:31:26;;;;;;;4.43;1.43;;;7.60;99.90;;;;;;5052252;28;20453;-61
2023/10/23 04:33:53;;;;;;;1.60;1.40;;;7.50;99.90;;;;;;5049095;28;20523;-62
2023/10/23 04:36:21;;;;;;;1.73;1.63;;;7.50;99.90;;;;;;5048416;28;20554;-63
2023/10/23 04:38:47;;;;;;;2.00;1.87;;;7.50;99.90;;;;;;5050388;28;20492;-60
2023/10/23 04:41:14;;;;;;;2.20;1.80;;;7.50;99.90;;;;;;5050160;28;20591;-59
2023/10/23 04:43:41;;;;;;;4.87;1.87;;;7.40;99.90;;;;;;5049199;28;20894;-61
2023/10/23 04:46:07;;;;;;;5.97;1.80;;;7.50;99.90;;;;;;5048779;28;20507;-60
2023/10/23 04:48:34;;;;;;;4.63;1.77;;;7.40;99.90;;;;;;5049589;28;20482;-61
2023/10/23 04:51:03;;;;;;;2.90;1.80;;;7.40;99.90;;;;;;5048485;28;20825;-61
2023/10/23 04:53:30;;;;;;;5.83;2.43;;;7.40;99.90;;;;;;5050468;28;20484;-61
2023/10/23 04:55:58;;;;;;;2.70;2.50;;;7.40;99.90;;;;;;5045072;28;20474;-60
2023/10/23 04:58:24;;;;;;;2.50;1.73;;;7.40;99.90;;;;;;5046286;28;21096;-60
2023/10/23 05:00:51;;;;;;;2.60;1.80;;;7.40;99.90;;;;;;5049990;28;20459;-62
2023/10/23 05:03:18;;;;;;;1.80;1.50;;;7.30;99.90;;;;;;5050001;28;20525;-61
2023/10/23 05:05:48;;;;;;;4.63;2.07;;;7.40;99.90;;;;;;5045932;28;20536;-61
2023/10/23 05:08:16;;;;;;;6.90;1.90;;;7.40;99.90;;;;;;5044212;28;20474;-63
2023/10/23 05:10:43;;;;;;;2.53;1.70;;;7.30;99.90;;;;;;5043312;28;21487;-62
2023/10/23 05:13:09;;;;;;;4.83;2.73;;;7.30;99.90;;;;;;5045766;28;20450;-61
2023/10/23 05:15:36;;;;;;;3.43;2.40;;;7.30;99.90;;;;;;5047532;28;20543;-62
2023/10/23 05:18:02;;;;;;;1.70;1.60;;;7.20;99.90;;;;;;5043169;28;20532;-62
2023/10/23 05:20:29;;;;;;;4.70;2.40;;;7.20;99.90;;;;;;5045208;28;20771;-62
2023/10/23 05:22:55;;;;;;;4.17;2.03;;;7.20;99.90;;;;;;5050796;28;20578;-63
2023/10/23 05:25:24;;;;;;;2.70;2.27;;;7.20;99.90;;;;;;5041299;28;20458;-61
2023/10/23 05:27:50;;;;;;;5.17;2.63;;;7.20;99.90;;;;;;5045908;28;20539;-61
2023/10/23 05:30:17;;;;;;;5.07;2.90;;;7.20;99.90;;;;;;5048810;28;20939;-62
2023/10/23 05:32:44;;;;;;;2.50;2.30;;;7.20;99.90;;;;;;5054522;28;20500;-62
2023/10/23 05:35:11;;;;;;;3.97;2.70;;;7.10;99.90;;;;;;5050490;28;20491;-62
2023/10/23 05:37:38;;;;;;;2.80;2.60;;;7.10;99.90;;;;;;5050655;28;20850;-63
2023/10/23 05:40:06;;;;;;;6.90;2.77;;;7.10;99.90;;;;;;5046249;28;20454;-61
2023/10/23 05:42:34;;;;;;;4.90;3.40;;;7.10;99.90;;;;;;5049030;28;20485;-62
2023/10/23 05:45:02;;;;;;;5.27;2.30;;;7.10;99.90;;;;;;5060639;28;20520;-61
2023/10/23 05:47:29;;;;;;;4.03;3.47;;;7.00;99.90;;;;;;5054608;28;20806;-62
2023/10/23 05:49:55;;;;;;;2.83;2.63;;;7.00;99.90;;;;;;5053773;28;21068;-62
2023/10/23 05:52:22;;;;;;;2.70;2.50;;;7.00;99.90;;;;;;5051973;28;20880;-62
2023/10/23 05:54:49;;;;;;;4.47;2.70;;;6.90;99.90;;;;;;5053709;28;20438;-61
2023/10/23 05:57:15;;;;;;;4.27;2.50;;;6.90;99.90;;;;;;5053039;28;20524;-62
2023/10/23 05:59:43;;;;;;;5.70;3.10;;;6.80;99.90;;;;;;5066551;28;20550;-61
2023/10/23 06:02:10;;;;;;;3.13;2.90;;;6.90;99.90;;;;;;5074547;28;20521;-62
2023/10/23 06:04:36;;;;;;;2.80;2.60;;;6.80;99.90;;;;;;5074499;28;20445;-62
2023/10/23 06:07:04;;;;;;;4.87;2.90;;;6.90;99.90;;;;;;5055890;28;20462;-62
2023/10/23 06:09:30;;;;;;;3.00;2.70;;;6.90;99.90;;;;;;5055491;28;20505;-62
2023/10/23 06:11:57;;;;;;;5.77;3.20;;;7.00;99.90;;;;;;5044229;28;20520;-61
2023/10/23 06:14:23;;;;;;;4.93;3.93;;;7.00;99.90;;;;;;5039640;28;20500;-60
2023/10/23 06:16:51;;;;;;;9.50;4.03;;;7.10;99.90;;;;;;5062067;28;20464;-61
2023/10/23 06:19:18;;;;;;;5.53;3.70;;;7.20;99.90;;;;;;5074421;28;20461;-61
2023/10/23 06:21:45;;;;;;;10.27;4.17;;;7.20;99.90;;;;;;5045469;28;20829;-61
2023/10/23 06:24:11;;;;;;;5.43;4.93;;;7.30;99.90;;;;;;5052364;28;20507;-61
2023/10/23 06:26:38;;;;;;;25.40;18.20;;;7.40;99.90;;;;;;5055456;28;20457;-61
2023/10/23 06:29:04;;;;;;;44.60;28.40;;;7.50;99.90;;;;;;5046435;28;20462;-62
2023/10/23 06:31:31;;;;;;;40.13;20.60;;;7.60;99.90;;;;;;5054053;28;20940;-61
2023/10/23 06:33:59;;;;;;;24.70;13.00;;;7.70;99.90;;;;;;5061527;28;20472;-61
2023/10/23 06:36:25;;;;;;;17.03;11.57;;;7.80;99.90;;;;;;5045524;28;20442;-60
2023/10/23 06:38:52;;;;;;;14.20;10.00;;;7.90;99.90;;;;;;5054113;28;20496;-60
2023/10/23 06:41:18;;;;;;;15.43;9.77;;;7.90;99.90;;;;;;5055247;28;21156;-60
2023/10/23 06:43:45;;;;;;;6.73;5.87;;;8.00;99.90;;;;;;5053687;28;20803;-59
2023/10/23 06:46:12;;;;;;;12.67;6.80;;;8.20;99.90;;;;;;5053903;28;20445;-60
2023/10/23 06:48:44;;;;;;;21.83;9.63;;;8.30;99.90;;;;;;5052728;28;20478;-60
2023/10/23 06:51:13;;;;;;;15.20;8.57;;;8.30;99.90;;;;;;5048050;28;20458;-60
2023/10/23 06:53:40;;;;;;;15.80;8.27;;;8.50;99.90;;;;;;5052948;28;20851;-60
2023/10/23 06:56:09;;;;;;;11.30;7.00;;;8.60;99.90;;;;;;5052756;28;20458;-59
2023/10/23 06:58:35;;;;;;;12.07;7.93;;;8.60;99.90;;;;;;5056110;28;20490;-60
2023/10/23 07:01:07;;;;;;;8.87;6.10;;;8.70;99.90;;;;;;5033744;28;20493;-60
2023/10/23 07:03:33;;;;;;;10.13;6.30;;;8.70;99.90;;;;;;5043515;28;20486;-60
2023/10/23 07:06:03;;;;;;;6.20;5.40;;;8.80;99.90;;;;;;5052886;28;20446;-60
2023/10/23 07:08:31;;;;;;;6.30;4.63;;;8.90;99.90;;;;;;5060157;28;20850;-61
2023/10/23 07:10:57;;;;;;;6.00;4.67;;;9.00;99.90;;;;;;5052629;28;20499;-60
2023/10/23 07:13:24;;;;;;;7.20;5.27;;;9.10;99.90;;;;;;5051679;28;21021;-59
2023/10/23 07:15:51;;;;;;;8.07;5.50;;;9.10;99.90;;;;;;5035120;28;20489;-60
2023/10/23 07:18:18;;;;;;;8.50;6.77;;;9.10;99.90;;;;;;5033361;28;20528;-60
2023/10/23 07:20:53;;;;;;;11.83;5.43;;;9.10;99.90;;;;;;5033158;28;20478;-60
2023/10/23 07:23:22;;;;;;;8.87;5.73;;;9.10;99.90;;;;;;5035660;28;20532;-62
2023/10/23 07:25:58;;;;;;;11.20;5.77;;;9.20;99.90;;;;;;5050899;28;20952;-61
2023/10/23 07:28:25;;;;;;;11.07;5.27;;;9.20;99.90;;;;;;5046618;28;20466;-59
2023/10/23 07:30:52;;;;;;;7.90;5.60;;;9.30;99.90;;;;;;5064807;28;20468;-59
2023/10/23 07:33:18;;;;;;;7.50;5.20;;;9.40;99.90;;;;;;5072707;28;20502;-61
2023/10/23 07:35:45;;;;;;;12.00;6.13;;;9.50;99.90;;;;;;5072625;28;20437;-60
2023/10/23 07:38:11;;;;;;;10.10;5.33;;;9.60;99.90;;;;;;5072708;28;20457;-59
2023/10/23 07:40:43;;;;;;;6.53;5.27;;;9.80;99.90;;;;;;5056266;28;20475;-59
2023/10/23 07:43:11;;;;;;;6.13;5.20;;;9.90;99.90;;;;;;5059778;28;20486;-59
2023/10/23 07:45:39;;;;;;;8.83;4.97;;;10.00;99.90;;;;;;5052629;28;20830;-60
2023/10/23 07:48:06;;;;;;;15.63;4.80;;;10.10;99.90;;;;;;5052906;28;20546;-59
2023/10/23 07:50:33;;;;;;;25.07;6.07;;;10.30;99.90;;;;;;5052857;28;20496;-60
2023/10/23 07:53:00;;;;;;;5.70;5.20;;;10.40;99.90;;;;;;5052128;28;20434;-60
2023/10/23 07:55:26;;;;;;;7.80;5.50;;;10.60;99.90;;;;;;5050607;28;20466;-60
2023/10/23 07:57:53;;;;;;;6.10;5.50;;;10.70;99.90;;;;;;5051260;28;20474;-59
2023/10/23 08:00:21;;;;;;;10.57;5.77;;;10.80;99.90;;;;;;5055012;28;20457;-60
2023/10/23 08:02:47;;;;;;;8.23;5.13;;;10.80;99.90;;;;;;5052563;28;20508;-61
2023/10/23 08:05:14;;;;;;;9.07;6.37;;;10.80;99.90;;;;;;5052293;28;20438;-59
2023/10/23 08:07:41;;;;;;;6.77;5.00;;;10.80;99.90;;;;;;5051390;28;20865;-60
2023/10/23 08:10:08;;;;;;;6.67;5.73;;;10.80;99.90;;;;;;5047648;28;20455;-61
2023/10/23 08:12:34;;;;;;;7.23;5.63;;;10.80;99.90;;;;;;5052490;28;20870;-61
2023/10/23 08:15:01;;;;;;;6.57;5.90;;;10.80;99.90;;;;;;5048338;28;20956;-60
2023/10/23 08:17:30;;;;;;;8.53;6.00;;;10.90;99.90;;;;;;5047247;28;20766;-60
2023/10/23 08:19:57;;;;;;;8.70;6.43;;;10.90;99.90;;;;;;5052152;28;20874;-60
2023/10/23 08:22:24;;;;;;;6.63;5.97;;;11.00;99.90;;;;;;5051884;28;20473;-60
2023/10/23 08:24:51;;;;;;;12.17;6.20;;;11.00;99.90;;;;;;5045478;28;20537;-61
2023/10/23 08:27:17;;;;;;;8.70;6.13;;;11.10;99.90;;;;;;5046415;28;20476;-60
2023/10/23 08:29:44;;;;;;;6.33;5.73;;;11.00;99.90;;;;;;5051174;28;21068;-60
2023/10/23 08:32:12;;;;;;;6.87;6.17;;;11.10;99.90;;;;;;5035499;28;20810;-59
2023/10/23 08:34:40;;;;;;;10.17;6.53;;;11.10;99.90;;;;;;5051744;28;20446;-60
2023/10/23 08:37:07;;;;;;;6.40;5.80;;;11.20;99.90;;;;;;5051623;28;20940;-60
2023/10/23 08:39:33;;;;;;;7.00;6.23;;;11.10;99.90;;;;;;5050611;28;21040;-60
2023/10/23 08:42:01;;;;;;;6.10;5.60;;;11.10;99.90;;;;;;5044708;28;20461;-61
2023/10/23 08:44:28;;;;;;;11.17;6.20;;;11.20;99.90;;;;;;5071774;28;20445;-58
2023/10/23 08:46:54;;;;;;;9.20;6.00;;;11.20;99.90;;;;;;5060867;28;20465;-59
2023/10/23 08:49:21;;;;;;;6.53;5.90;;;11.30;99.90;;;;;;5054509;28;20478;-59
2023/10/23 08:51:50;;;;;;;10.03;6.43;;;11.30;99.90;;;;;;5048636;28;20523;-60
2023/10/23 08:54:18;;;;;;;7.07;5.70;;;11.30;99.90;;;;;;5039867;28;20537;-61
2023/10/23 08:56:46;;;;;;;6.97;5.80;;;11.40;99.90;;;;;;5051254;28;20438;-60
2023/10/23 08:59:14;;;;;;;8.00;7.07;;;11.40;99.90;;;;;;5069089;28;20488;-60
2023/10/23 09:01:40;;;;;;;6.73;5.53;;;11.40;99.90;;;;;;5061014;28;20540;-61
2023/10/23 09:04:10;;;;;;;10.13;6.10;;;11.40;99.90;;;;;;5047991;28;21162;-60
2023/10/23 09:06:36;;;;;;;6.70;6.00;;;11.50;99.90;;;;;;5052013;28;20465;-61
2023/10/23 09:09:05;;;;;;;8.27;5.60;;;11.50;99.90;;;;;;5050557;28;20858;-61
2023/10/23 09:11:41;;;;;;;19.73;5.43;;;11.50;99.90;;;;;;5054986;28;20845;-60
2023/10/23 09:14:08;;;;;;;16.53;6.33;;;11.50;99.90;;;;;;5058568;28;20525;-61
2023/10/23 09:16:35;;;;;;;6.13;5.53;;;11.50;99.90;;;;;;5075646;28;20486;-61
2023/10/23 09:19:02;;;;;;;5.70;5.20;;;11.50;99.90;;;;;;5067404;28;20607;-60
2023/10/23 09:21:30;;;;;;;8.17;5.40;;;11.40;99.90;;;;;;5059038;28;20546;-60
2023/10/23 09:23:58;;;;;;;11.30;6.03;;;11.50;99.90;;;;;;5051396;28;20543;-61
2023/10/23 09:26:26;;;;;;;9.50;5.83;;;11.50;99.90;;;;;;5054684;28;20460;-60
2023/10/23 09:28:53;;;;;;;7.27;6.50;;;11.60;99.90;;;;;;5063693;28;20507;-60
2023/10/23 09:31:21;;;;;;;6.60;6.00;;;11.60;99.90;;;;;;5075635;28;20501;-59
2023/10/23 09:33:50;;;;;;;7.33;5.30;;;11.60;99.90;;;;;;5062702;28;20564;-60
2023/10/23 09:36:17;;;;;;;11.23;6.50;;;11.80;99.90;;;;;;5047769;28;20511;-61
2023/10/23 09:38:44;;;;;;;12.77;6.90;;;11.80;99.90;;;;;;5054377;28;20486;-60
2023/10/23 09:41:11;;;;;;;10.03;6.90;;;11.90;99.90;;;;;;5047113;28;20998;-61
2023/10/23 09:43:45;;;;;;;11.33;7.27;;;11.90;99.90;;;;;;5056137;28;20485;-60
2023/10/23 09:46:13;;;;;;;9.97;6.50;;;12.00;99.90;;;;;;5034794;28;20837;-60
2023/10/23 09:48:41;;;;;;;10.23;6.70;;;12.10;99.70;;;;;;5034864;28;20517;-61
2023/10/23 09:51:12;;;;;;;7.57;6.80;;;12.10;80.30;;;;;;5049737;28;20455;-60
2023/10/23 09:53:39;;;;;;;9.60;6.80;;;12.20;74.40;;;;;;5049431;28;20985;-61
2023/10/23 09:56:08;;;;;;;10.63;6.80;;;12.30;23.00;;;;;;5054118;28;20446;-60
2023/10/23 09:58:39;;;;;;;10.93;5.53;;;12.30;27.00;;;;;;5063240;22;20490;-56
2023/10/23 10:01:11;;;;;;;10.23;6.47;;;12.30;35.80;;;;;;5033041;28;20561;-57
2023/10/23 10:03:41;;;;;;;7.17;6.47;;;12.40;36.20;;;;;;5034936;28;20486;-56
2023/10/23 10:06:14;;;;;;;11.33;6.50;;;12.40;38.20;;;;;;5031527;28;20502;-56
2023/10/23 10:08:48;;;;;;;13.27;6.40;;;12.60;39.40;;;;;;5020165;28;20895;-57
2023/10/23 10:11:16;;;;;;;13.03;6.80;;;12.80;39.60;;;;;;5009210;28;20458;-56
2023/10/23 10:13:43;;;;;;;8.87;8.07;;;13.00;44.30;;;;;;5016871;28;20516;-56
2023/10/23 10:16:13;;;;;;;9.33;7.60;;;13.00;60.00;;;;;;5027822;28;20493;-57
2023/10/23 10:18:42;;;;;;;8.50;7.47;;;13.00;70.00;;;;;;5034278;28;20464;-56
2023/10/23 10:21:12;;;;;;;13.07;9.30;;;13.10;70.00;;;;;;5023595;28;20494;-56
2023/10/23 10:23:40;;;;;;;10.77;8.57;;;13.10;72.70;;;;;;5013807;28;21031;-56
2023/10/23 10:26:07;;;;;;;17.23;9.77;;;13.00;61.70;;;;;;5017673;28;20459;-56
2023/10/23 10:28:38;;;;;;;9.53;8.40;;;13.10;63.90;;;;;;5018443;28;20895;-57
2023/10/23 10:31:04;;;;;;;14.73;7.93;;;13.10;62.90;;;;;;5014324;28;20443;-56
2023/10/23 10:33:32;;;;;;;14.87;9.17;;;13.20;56.90;;;;;;5012732;28;20467;-56
2023/10/23 10:36:03;;;;;;;9.50;7.57;;;13.20;63.80;;;;;;5013922;28;20448;-57
2023/10/23 10:38:30;;;;;;;8.93;8.13;;;13.20;67.90;;;;;;5013174;28;20832;-57
2023/10/23 10:40:59;;;;;;;13.17;9.50;;;13.20;67.20;;;;;;5014376;28;20866;-57
2023/10/23 10:43:29;;;;;;;8.90;8.10;;;13.20;72.20;;;;;;5025300;28;20482;-57
2023/10/23 10:45:56;;;;;;;15.50;9.20;;;13.20;68.50;;;;;;5013365;28;20533;-57
2023/10/23 10:48:24;;;;;;;8.80;7.90;;;13.30;66.60;;;;;;5014119;28;20463;-56
2023/10/23 10:50:53;;;;;;;9.93;8.87;;;13.30;64.30;;;;;;5013396;28;20963;-58
2023/10/23 10:53:23;;;;;;;10.23;7.77;;;13.50;64.30;;;;;;5011770;28;20460;-56
2023/10/23 10:55:50;;;;;;;10.40;8.63;;;13.50;72.10;;;;;;5013934;28;20479;-56
2023/10/23 10:58:19;;;;;;;12.90;9.17;;;13.60;77.00;;;;;;5014065;28;20518;-56
2023/10/23 11:00:46;;;;;;;13.03;9.70;;;13.70;80.80;;;;;;5012700;28;20475;-56
2023/10/23 11:03:12;;;;;;;11.60;8.37;;;13.70;87.30;;;;;;5013802;28;20476;-57
2023/10/23 11:05:45;;;;;;;9.10;8.23;;;13.80;90.00;;;;;;5012632;28;20518;-57
2023/10/23 11:08:13;;;;;;;11.43;8.63;;;13.80;88.40;;;;;;5025042;28;20450;-57
2023/10/23 11:10:39;;;;;;;11.47;8.97;;;13.80;89.90;;;;;;5016425;28;20459;-57
2023/10/23 11:13:06;;;;;;;8.50;7.53;;;13.70;92.70;;;;;;5021507;28;20435;-57
2023/10/23 11:15:32;;;;;;;12.77;9.37;;;13.60;89.70;;;;;;5012603;28;20471;-57
2023/10/23 11:17:59;;;;;;;9.43;7.60;;;13.60;84.40;;;;;;5019621;28;20467;-56
2023/10/23 11:20:30;;;;;;;11.93;8.50;;;13.60;78.90;;;;;;5022628;28;20455;-56
2023/10/23 11:22:57;;;;;;;10.93;7.63;;;13.50;78.40;;;;;;5013399;28;20455;-56
2023/10/23 11:25:26;;;;;;;8.43;7.53;;;13.50;74.30;;;;;;5010503;28;20463;-56
2023/10/23 11:27:54;;;;;;;12.70;6.67;;;13.50;74.30;;;;;;5013398;28;20479;-57
2023/10/23 11:30:25;;;;;;;8.73;7.57;;;13.50;74.50;;;;;;5032974;28;20952;-56
2023/10/23 11:32:53;;;;;;;7.70;6.63;;;13.50;80.90;;;;;;5018997;28;20525;-57
2023/10/23 11:35:19;;;;;;;7.80;7.00;;;13.60;82.00;;;;;;5011187;28;20881;-56
2023/10/23 11:37:47;;;;;;;7.83;6.33;;;13.60;84.40;;;;;;5005176;28;20471;-57
2023/10/23 11:40:20;;;;;;;10.53;7.20;;;13.70;84.50;;;;;;5011060;28;20530;-58
2023/10/23 11:42:53;;;;;;;8.23;6.23;;;13.70;84.10;;;;;;5027160;28;20458;-58
2023/10/23 11:45:20;;;;;;;10.33;7.50;;;13.70;82.50;;;;;;5018315;28;20455;-56
2023/10/23 11:47:47;;;;;;;8.63;6.93;;;13.80;86.60;;;;;;5007872;28;20976;-56
2023/10/23 11:50:14;;;;;;;6.90;6.20;;;13.90;88.00;;;;;;5011771;28;20887;-56
2023/10/23 11:52:44;;;;;;;13.97;6.77;;;14.10;87.60;;;;;;5017118;28;20545;-56
2023/10/23 11:55:12;;;;;;;10.37;7.40;;;14.30;88.10;;;;;;5020138;28;20497;-55
2023/10/23 11:57:41;;;;;;;8.47;7.33;;;14.50;97.20;;;;;;5012835;28;20470;-57
2023/10/23 12:00:14;;;;;;;7.10;6.40;;;14.50;99.90;;;;;;5012426;28;20538;-56
2023/10/23 12:02:41;;;;;;;8.70;7.93;;;14.60;99.90;;;;;;5010503;28;20467;-57
2023/10/23 12:05:12;;;;;;;8.40;7.50;;;15.30;99.90;;;;;;5011423;28;20545;-56
2023/10/23 12:07:40;;;;;;;8.03;7.27;;;15.80;99.90;;;;;;5012351;28;20933;-57
2023/10/23 12:10:07;;;;;;;17.43;7.70;;;15.80;99.90;;;;;;5013370;28;20930;-57
2023/10/23 12:12:34;;;;;;;12.83;9.40;;;16.50;99.90;;;;;;5023813;28;20516;-56
2023/10/23 12:15:01;;;;;;;14.10;6.60;;;16.50;99.90;;;;;;5031957;28;20434;-56
2023/10/23 12:17:29;;;;;;;9.70;8.70;;;15.90;99.90;;;;;;5013000;28;20818;-56
2023/10/23 12:19:55;;;;;;;9.93;8.37;;;15.30;99.90;;;;;;5011481;28;20984;-56
2023/10/23 12:22:22;;;;;;;19.27;8.27;;;15.10;99.90;;;;;;5011303;28;20552;-56
2023/10/23 12:24:48;;;;;;;10.93;9.70;;;14.90;99.90;;;;;;5010562;28;20475;-56
2023/10/23 12:27:15;;;;;;;10.60;8.70;;;14.70;99.90;;;;;;5018998;28;20446;-56
2023/10/23 12:29:42;;;;;;;14.13;8.33;;;14.60;99.90;;;;;;5015384;28;20577;-56
2023/10/23 12:32:11;;;;;;;11.80;8.23;;;14.50;99.90;;;;;;5012001;28;20448;-56
2023/10/23 12:34:39;;;;;;;15.23;7.40;;;14.60;99.90;;;;;;5010878;28;21033;-57
2023/10/23 12:37:05;;;;;;;8.80;7.90;;;14.80;99.90;;;;;;5009621;28;20463;-57
2023/10/23 12:39:32;;;;;;;12.63;7.47;;;15.00;99.90;;;;;;5011554;28;20464;-57
2023/10/23 12:41:59;;;;;;;12.00;9.03;;;15.50;99.90;;;;;;5010406;28;20479;-56
2023/10/23 12:44:26;;;;;;;7.60;6.90;;;15.30;99.90;;;;;;5009629;28;20538;-56
2023/10/23 12:46:52;;;;;;;8.07;6.97;;;15.10;99.90;;;;;;5005122;28;20570;-56
2023/10/23 12:49:19;;;;;;;10.47;8.30;;;15.00;99.90;;;;;;5011966;28;20459;-56
2023/10/23 12:51:47;;;;;;;11.77;7.07;;;14.80;99.90;;;;;;5009885;28;20464;-56